createdAt,value
2018-12-13T00:00:58.144Z,6.70
2018-12-13T00:03:32.161Z,5.70
2018-12-13T00:06:06.477Z,5.70
2018-12-13T00:08:40.587Z,4.80
2018-12-13T00:11:14.314Z,5.30
2018-12-13T00:13:48.411Z,5.40
2018-12-13T00:16:23.865Z,5.30
2018-12-13T00:18:57.529Z,5.30
2018-12-13T00:21:31.926Z,4.50
2018-12-13T00:24:06.334Z,4.63
2018-12-13T00:26:40.662Z,4.20
2018-12-13T00:29:15.737Z,3.80
2018-12-13T00:31:49.626Z,4.07
2018-12-13T00:34:25.348Z,4.47
2018-12-13T00:36:59.316Z,3.63
2018-12-13T00:39:33.330Z,4.10
2018-12-13T00:42:09.710Z,4.00
2018-12-13T00:44:43.705Z,3.77
2018-12-13T00:47:18.064Z,4.10
2018-12-13T00:49:51.932Z,3.90
2018-12-13T00:52:26.063Z,3.10
2018-12-13T00:54:59.945Z,4.10
2018-12-13T00:57:33.971Z,3.50
2018-12-13T01:00:08.724Z,3.47
2018-12-13T01:02:42.353Z,3.10
2018-12-13T01:05:17.309Z,3.30
2018-12-13T01:07:51.042Z,3.60
2018-12-13T01:10:25.109Z,3.30
2018-12-13T01:12:59.056Z,3.43
2018-12-13T01:15:36.651Z,3.77
2018-12-13T01:18:11.072Z,3.33
2018-12-13T01:20:45.248Z,3.33
2018-12-13T01:23:20.431Z,3.60
2018-12-13T01:25:54.781Z,2.40
2018-12-13T01:28:28.992Z,3.10
2018-12-13T01:31:02.464Z,3.87
2018-12-13T01:33:36.780Z,3.10
2018-12-13T01:36:12.644Z,3.37
2018-12-13T01:38:46.331Z,2.67
2018-12-13T01:41:20.170Z,3.20
2018-12-13T01:43:55.759Z,2.90
2018-12-13T01:46:30.074Z,2.70
2018-12-13T01:49:05.288Z,2.60
2018-12-13T01:51:39.903Z,3.00
2018-12-13T01:54:14.133Z,2.27
2018-12-13T01:56:48.624Z,2.77
2018-12-13T01:59:22.718Z,2.27
2018-12-13T02:01:58.414Z,2.67
2018-12-13T02:04:33.183Z,2.90
2018-12-13T02:07:07.019Z,2.23
2018-12-13T02:09:40.898Z,2.50
2018-12-13T02:12:14.774Z,2.50
2018-12-13T02:14:49.001Z,2.20
2018-12-13T02:17:22.995Z,2.40
2018-12-13T02:19:56.839Z,2.40
2018-12-13T02:22:31.066Z,2.13
2018-12-13T02:25:05.263Z,3.00
2018-12-13T02:27:39.844Z,2.47
2018-12-13T02:30:14.310Z,3.40
2018-12-13T02:32:48.115Z,3.17
2018-12-13T02:35:22.400Z,3.00
2018-12-13T02:37:56.300Z,3.03
2018-12-13T02:40:29.985Z,2.60
2018-12-13T02:43:03.777Z,3.07
2018-12-13T02:45:38.729Z,3.20
2018-12-13T02:48:12.249Z,2.90
2018-12-13T02:50:46.231Z,3.10
2018-12-13T02:53:20.243Z,2.73
2018-12-13T02:55:53.943Z,3.30
2018-12-13T02:58:28.451Z,3.20
2018-12-13T03:01:02.728Z,3.10
2018-12-13T03:03:37.261Z,3.70
2018-12-13T03:06:13.417Z,3.37
2018-12-13T03:08:53.781Z,3.13
2018-12-13T03:11:28.303Z,3.40
2018-12-13T03:14:12.187Z,4.20
2018-12-13T03:16:46.227Z,3.80
2018-12-13T03:19:22.553Z,4.03
2018-12-13T03:21:57.374Z,3.87
2018-12-13T03:24:32.124Z,4.30
2018-12-13T03:27:06.470Z,3.53
2018-12-13T03:29:41.877Z,3.60
2018-12-13T03:32:18.495Z,3.97
2018-12-13T03:34:52.926Z,4.60
2018-12-13T03:37:27.600Z,3.83
2018-12-13T03:40:01.750Z,4.30
2018-12-13T03:42:36.275Z,3.47
2018-12-13T03:45:10.996Z,3.27
2018-12-13T03:47:47.482Z,4.43
2018-12-13T03:50:23.225Z,3.80
2018-12-13T03:53:06.061Z,3.33
2018-12-13T03:55:41.583Z,4.97
2018-12-13T03:58:15.891Z,4.13
2018-12-13T04:00:51.056Z,3.90
2018-12-13T04:03:26.830Z,3.80
2018-12-13T04:06:00.928Z,4.30
2018-12-13T04:08:36.375Z,4.47
2018-12-13T04:11:11.583Z,4.13
2018-12-13T04:13:48.302Z,4.10
2018-12-13T04:16:26.300Z,4.40
2018-12-13T04:19:00.710Z,3.90
2018-12-13T04:21:34.873Z,4.20
2018-12-13T04:24:09.594Z,4.87
2018-12-13T04:26:43.907Z,3.70
2018-12-13T04:29:17.882Z,3.37
2018-12-13T04:31:52.414Z,4.30
2018-12-13T04:34:26.655Z,3.90
2018-12-13T04:37:02.416Z,3.73
2018-12-13T04:39:35.960Z,3.80
2018-12-13T04:42:10.176Z,3.67
2018-12-13T04:44:44.829Z,3.63
2018-12-13T04:47:20.861Z,4.80
2018-12-13T04:49:55.661Z,3.87
2018-12-13T04:52:31.488Z,3.70
2018-12-13T04:55:06.446Z,3.80
2018-12-13T04:57:40.531Z,4.00
2018-12-13T05:00:15.227Z,4.27
2018-12-13T05:02:53.308Z,3.05
2018-12-13T05:05:29.777Z,4.53
2018-12-13T05:08:04.096Z,3.70
2018-12-13T05:10:50.314Z,4.08
2018-12-13T05:13:24.872Z,3.30
2018-12-13T05:15:59.760Z,3.70
2018-12-13T05:18:37.652Z,3.17
2018-12-13T05:21:13.547Z,2.50
2018-12-13T05:23:47.745Z,3.60
2018-12-13T05:26:22.646Z,3.50
2018-12-13T05:28:56.407Z,2.80
2018-12-13T05:31:30.224Z,5.47
2018-12-13T05:34:04.000Z,4.22
2018-12-13T05:36:38.553Z,4.80
2018-12-13T05:39:14.290Z,5.75
2018-12-13T05:41:48.377Z,4.87
2018-12-13T05:44:24.469Z,4.87
2018-12-13T05:47:00.984Z,5.25
2018-12-13T05:49:36.831Z,4.37
2018-12-13T05:52:13.218Z,4.10
2018-12-13T05:54:48.287Z,4.30
2018-12-13T05:57:22.814Z,3.65
2018-12-13T05:59:57.038Z,3.83
2018-12-13T06:02:31.911Z,4.93
2018-12-13T06:05:06.730Z,4.33
2018-12-13T06:07:44.185Z,4.70
2018-12-13T06:10:20.018Z,4.78
2018-12-13T06:12:55.097Z,5.35
2018-12-13T06:15:29.381Z,4.67
2018-12-13T06:18:06.903Z,4.63
2018-12-13T06:20:41.363Z,4.00
2018-12-13T06:23:21.042Z,3.80
2018-12-13T06:25:55.582Z,3.90
2018-12-13T06:28:30.256Z,3.53
2018-12-13T06:31:05.030Z,4.20
2018-12-13T06:33:40.696Z,3.95
2018-12-13T06:36:15.945Z,3.50
2018-12-13T06:38:51.113Z,3.35
2018-12-13T06:41:25.503Z,3.75
2018-12-13T06:44:02.136Z,4.10
2018-12-13T06:46:38.650Z,3.97
2018-12-13T06:49:14.944Z,3.67
2018-12-13T06:51:49.072Z,4.73
2018-12-13T06:54:24.546Z,4.40
2018-12-13T06:57:02.902Z,4.20
2018-12-13T06:59:37.792Z,4.20
2018-12-13T07:02:12.342Z,3.77
2018-12-13T07:04:47.298Z,3.90
2018-12-13T07:07:21.148Z,4.50
2018-12-13T07:09:58.007Z,4.00
2018-12-13T07:12:32.634Z,3.67
2018-12-13T07:15:06.454Z,4.37
2018-12-13T07:17:41.438Z,4.63
2018-12-13T07:20:16.951Z,5.50
2018-12-13T07:22:50.919Z,5.50
2018-12-13T07:25:25.061Z,4.50
2018-12-13T07:28:00.147Z,4.20
2018-12-13T07:30:34.380Z,3.93
2018-12-13T07:33:08.199Z,4.70
2018-12-13T07:35:42.733Z,4.60
2018-12-13T07:38:17.555Z,4.58
2018-12-13T07:40:52.851Z,4.47
2018-12-13T07:43:27.901Z,4.57
2018-12-13T07:46:02.800Z,4.17
2018-12-13T07:48:37.759Z,4.60
2018-12-13T07:51:13.214Z,4.95
2018-12-13T07:53:48.152Z,4.80
2018-12-13T07:56:25.124Z,5.03
2018-12-13T07:58:59.134Z,4.23
2018-12-13T08:01:33.451Z,3.42
2018-12-13T08:04:07.192Z,3.50
2018-12-13T08:06:44.167Z,3.73
2018-12-13T08:09:18.774Z,4.70
2018-12-13T08:11:54.010Z,4.30
2018-12-13T08:14:28.453Z,4.10
2018-12-13T08:17:03.934Z,4.50
2018-12-13T08:19:38.743Z,4.00
2018-12-13T08:22:13.602Z,3.47
2018-12-13T08:24:48.028Z,4.20
2018-12-13T08:27:22.222Z,3.50
2018-12-13T08:29:58.105Z,3.50
2018-12-13T08:32:34.472Z,4.50
2018-12-13T08:35:08.413Z,3.87
2018-12-13T08:37:42.650Z,3.70
2018-12-13T08:40:17.643Z,3.70
2018-12-13T08:42:51.817Z,4.10
2018-12-13T08:45:26.522Z,4.47
2018-12-13T08:48:03.010Z,3.90
2018-12-13T08:50:37.804Z,3.30
2018-12-13T08:53:12.653Z,4.43
2018-12-13T08:55:46.390Z,3.60
2018-12-13T08:58:21.606Z,4.27
2018-12-13T09:00:55.665Z,3.87
2018-12-13T09:03:29.813Z,3.50
2018-12-13T09:06:06.023Z,3.43
2018-12-13T09:08:40.593Z,4.10
2018-12-13T09:11:15.066Z,3.70
2018-12-13T09:13:49.996Z,3.70
2018-12-13T09:16:24.373Z,3.70
2018-12-13T09:18:58.342Z,3.30
2018-12-13T09:21:32.872Z,3.87
2018-12-13T09:24:07.431Z,3.60
2018-12-13T09:26:42.362Z,3.77
2018-12-13T09:29:16.630Z,3.33
2018-12-13T09:31:50.635Z,3.37
2018-12-13T09:34:24.957Z,4.00
2018-12-13T09:36:59.671Z,3.50
2018-12-13T09:39:33.993Z,4.30
2018-12-13T09:42:08.545Z,3.90
2018-12-13T09:44:42.569Z,3.83
2018-12-13T09:47:16.701Z,3.97
2018-12-13T09:49:50.552Z,4.10
2018-12-13T09:52:24.696Z,3.90
2018-12-13T09:55:05.596Z,4.37
2018-12-13T09:57:38.701Z,3.90
2018-12-13T10:00:14.610Z,4.30
2018-12-13T10:02:48.889Z,4.40
2018-12-13T10:05:22.787Z,5.40
2018-12-13T10:07:58.134Z,6.17
2018-12-13T10:10:32.740Z,5.27
2018-12-13T10:13:06.803Z,4.30
2018-12-13T10:15:40.802Z,4.20
2018-12-13T10:18:15.899Z,4.55
2018-12-13T10:20:49.933Z,4.60
2018-12-13T10:23:24.147Z,4.83
2018-12-13T10:25:59.669Z,4.87
2018-12-13T10:28:35.010Z,4.63
2018-12-13T10:31:09.080Z,4.80
2018-12-13T10:33:44.048Z,5.60
2018-12-13T10:36:17.841Z,5.23
2018-12-13T10:38:53.224Z,4.72
2018-12-13T10:41:28.708Z,5.50
2018-12-13T10:44:02.757Z,5.47
2018-12-13T10:46:36.429Z,5.10
2018-12-13T10:49:10.630Z,5.33
2018-12-13T10:51:44.731Z,6.33
2018-12-13T10:54:20.157Z,5.27
2018-12-13T10:56:53.888Z,5.53
2018-12-13T10:59:31.008Z,5.43
2018-12-13T11:02:11.455Z,5.00
2018-12-13T11:04:45.499Z,4.80
2018-12-13T11:07:20.306Z,4.93
2018-12-13T11:09:54.289Z,4.92
2018-12-13T11:12:28.876Z,4.63
2018-12-13T11:15:02.958Z,4.93
2018-12-13T11:17:38.341Z,4.67
2018-12-13T11:20:12.433Z,5.20
2018-12-13T11:22:46.973Z,4.83
2018-12-13T11:25:20.999Z,5.23
2018-12-13T11:30:03.180Z,5.27
2018-12-13T11:32:36.831Z,5.17
2018-12-13T11:35:12.915Z,5.63
2018-12-13T11:40:29.143Z,6.80
2018-12-13T11:43:03.315Z,8.27
2018-12-13T11:45:38.700Z,8.63
2018-12-13T11:48:13.159Z,9.57
2018-12-13T11:50:48.116Z,7.80
2018-12-13T11:53:22.348Z,8.83
2018-12-13T11:55:57.245Z,8.77
2018-12-13T11:58:31.667Z,9.10
2018-12-13T12:01:06.152Z,9.83
2018-12-13T12:03:41.509Z,9.80
2018-12-13T12:06:16.592Z,7.40
2018-12-13T12:08:50.482Z,7.73
2018-12-13T12:11:25.020Z,8.03
2018-12-13T12:14:00.311Z,9.00
2018-12-13T12:16:34.863Z,7.07
2018-12-13T12:19:13.817Z,8.50
2018-12-13T12:21:52.042Z,9.50
2018-12-13T12:24:26.041Z,10.10
2018-12-13T12:27:00.200Z,9.70
2018-12-13T12:29:34.159Z,10.00
2018-12-13T12:32:09.927Z,9.27
2018-12-13T12:34:45.259Z,9.83
2018-12-13T12:37:20.138Z,9.67
2018-12-13T12:39:55.066Z,9.33
2018-12-13T12:42:29.341Z,9.47
2018-12-13T12:45:03.950Z,9.30
2018-12-13T12:47:37.709Z,8.90
2018-12-13T12:50:13.773Z,9.70
2018-12-13T12:52:47.995Z,8.63
2018-12-13T12:55:22.981Z,9.73
2018-12-13T12:58:01.253Z,8.67
2018-12-13T13:00:35.667Z,8.13
2018-12-13T13:03:09.896Z,8.03
2018-12-13T13:05:44.476Z,6.97
2018-12-13T13:08:19.599Z,7.90
2018-12-13T13:10:54.820Z,6.83
2018-12-13T13:13:30.495Z,7.90
2018-12-13T13:16:04.526Z,7.37
2018-12-13T13:18:40.706Z,7.70
2018-12-13T13:21:16.329Z,7.40
2018-12-13T13:23:50.311Z,6.87
2018-12-13T13:26:24.554Z,6.97
2018-12-13T13:28:58.672Z,6.50
2018-12-13T13:31:33.813Z,6.30
2018-12-13T13:34:07.548Z,7.07
2018-12-13T13:36:42.510Z,7.30
2018-12-13T13:39:16.903Z,8.28
2018-12-13T13:41:50.953Z,7.07
2018-12-13T13:44:27.463Z,7.67
2018-12-13T13:47:01.625Z,7.13
2018-12-13T13:49:35.866Z,8.47
2018-12-13T13:52:10.342Z,8.40
2018-12-13T13:54:46.288Z,8.50
2018-12-13T13:57:21.437Z,7.40
2018-12-13T13:59:55.588Z,7.83
2018-12-13T14:02:29.496Z,9.27
2018-12-13T14:05:03.686Z,8.43
2018-12-13T14:07:38.196Z,7.43
2018-12-13T14:10:14.760Z,8.47
2018-12-13T14:12:48.890Z,9.80
2018-12-13T14:15:22.771Z,8.90
2018-12-13T14:17:56.766Z,8.33
2018-12-13T14:20:33.313Z,9.40
2018-12-13T14:23:08.421Z,9.13
2018-12-13T14:25:42.627Z,7.80
2018-12-13T14:28:16.693Z,9.70
2018-12-13T14:30:50.731Z,8.60
2018-12-13T14:33:29.146Z,9.07
2018-12-13T14:36:03.760Z,9.50
2018-12-13T14:38:38.200Z,8.67
2018-12-13T14:41:12.675Z,9.60
2018-12-13T14:43:49.188Z,9.13
2018-12-13T14:46:23.332Z,9.23
2018-12-13T14:48:57.506Z,9.53
2018-12-13T14:51:31.594Z,11.70
2018-12-13T14:54:06.322Z,11.40
2018-12-13T14:56:40.039Z,14.27
2018-12-13T14:59:14.659Z,13.83
2018-12-13T15:01:49.548Z,14.70
2018-12-13T15:04:24.422Z,14.13
2018-12-13T15:06:58.805Z,13.27
2018-12-13T15:09:35.342Z,12.03
2018-12-13T15:12:09.472Z,12.57
2018-12-13T15:14:43.362Z,10.80
2018-12-13T15:17:23.454Z,10.67
2018-12-13T15:19:57.952Z,10.00
2018-12-13T15:22:33.435Z,10.28
2018-12-13T15:25:10.621Z,10.40
2018-12-13T15:27:45.812Z,9.43
2018-12-13T15:30:19.813Z,8.73
2018-12-13T15:32:53.912Z,9.70
2018-12-13T15:35:32.818Z,7.53
2018-12-13T15:38:06.440Z,7.30
2018-12-13T15:40:41.740Z,8.47
2018-12-13T15:43:15.745Z,8.17
2018-12-13T15:45:50.672Z,8.97
2018-12-13T15:48:27.890Z,8.17
2018-12-13T15:51:02.391Z,9.17
2018-12-13T15:53:36.675Z,9.30
2018-12-13T15:56:10.521Z,9.43
2018-12-13T15:58:45.397Z,8.93
2018-12-13T16:01:19.750Z,7.63
2018-12-13T16:04:02.430Z,8.05
2018-12-13T16:06:36.632Z,8.47
2018-12-13T16:09:12.076Z,7.67
2018-12-13T16:11:50.127Z,9.07
2018-12-13T16:14:25.956Z,7.90
2018-12-13T16:16:59.763Z,8.97
2018-12-13T16:19:34.865Z,10.00
2018-12-13T16:22:09.102Z,9.10
2018-12-13T16:24:45.394Z,10.00
2018-12-13T16:27:20.722Z,10.70
2018-12-13T16:29:55.017Z,9.60
2018-12-13T16:32:29.099Z,8.47
2018-12-13T16:35:03.147Z,9.77
2018-12-13T16:37:37.774Z,9.17
2018-12-13T16:40:12.105Z,9.40
2018-12-13T16:42:47.784Z,9.17
2018-12-13T16:45:21.612Z,9.40
2018-12-13T16:47:55.642Z,8.67
2018-12-13T16:50:29.755Z,9.17
2018-12-13T16:53:05.195Z,8.30
2018-12-13T16:55:39.424Z,8.30
2018-12-13T16:58:13.958Z,8.03
2018-12-13T17:00:48.743Z,8.47
2018-12-13T17:03:31.914Z,8.60
2018-12-13T17:06:07.937Z,8.70
2018-12-13T17:08:41.961Z,8.27
2018-12-13T17:11:19.405Z,8.00
2018-12-13T17:13:54.836Z,8.43
2018-12-13T17:16:30.655Z,8.17
2018-12-13T17:19:06.160Z,7.70
2018-12-13T17:21:40.749Z,8.30
2018-12-13T17:24:16.082Z,8.40
2018-12-13T17:26:51.445Z,8.00
2018-12-13T17:29:24.975Z,8.40
2018-12-13T17:32:00.572Z,7.00
2018-12-13T17:34:34.618Z,8.43
2018-12-13T17:37:08.905Z,8.43
2018-12-13T17:39:42.873Z,7.07
2018-12-13T17:42:17.909Z,7.03
2018-12-13T17:44:52.033Z,7.47
2018-12-13T17:47:26.262Z,6.53
2018-12-13T17:50:00.453Z,7.57
2018-12-13T17:52:34.904Z,7.87
2018-12-13T17:55:10.997Z,7.10
2018-12-13T17:57:44.689Z,8.13
2018-12-13T18:00:19.267Z,8.13
2018-12-13T18:02:53.525Z,8.20
2018-12-13T18:05:27.679Z,8.33
2018-12-13T18:08:01.607Z,7.90
2018-12-13T18:10:35.998Z,9.20
2018-12-13T18:13:10.119Z,8.40
2018-12-13T18:15:45.152Z,9.67
2018-12-13T18:18:19.291Z,7.47
2018-12-13T18:20:53.550Z,8.40
2018-12-13T18:23:27.577Z,9.67
2018-12-13T18:26:02.887Z,8.93
2018-12-13T18:28:37.434Z,8.90
2018-12-13T18:31:11.563Z,8.77
2018-12-13T18:33:45.859Z,9.70
2018-12-13T18:36:20.549Z,9.53
2018-12-13T18:38:54.518Z,9.60
2018-12-13T18:41:28.862Z,8.10
2018-12-13T18:44:04.122Z,8.60
2018-12-13T18:46:38.474Z,10.37
2018-12-13T18:49:12.252Z,10.23
2018-12-13T18:51:47.909Z,9.27
2018-12-13T18:54:22.366Z,8.27
2018-12-13T18:56:58.902Z,8.17
2018-12-13T18:59:34.123Z,9.83
2018-12-13T19:02:08.839Z,8.47
2018-12-13T19:04:45.694Z,9.60
2018-12-13T19:07:21.856Z,9.80
2018-12-13T19:09:55.924Z,9.77
2018-12-13T19:12:29.886Z,10.63
2018-12-13T19:15:05.970Z,9.37
2018-12-13T19:17:40.964Z,9.50
2018-12-13T19:20:15.241Z,9.80
2018-12-13T19:22:49.411Z,9.97
2018-12-13T19:25:24.671Z,8.90
2018-12-13T19:27:58.241Z,9.07
2018-12-13T19:30:32.334Z,9.47
2018-12-13T19:33:08.703Z,10.27
2018-12-13T19:35:43.908Z,8.55
2018-12-13T19:38:18.094Z,8.70
2018-12-13T19:40:51.907Z,9.33
2018-12-13T19:43:26.307Z,8.90
2018-12-13T19:46:00.543Z,9.50
2018-12-13T19:48:34.596Z,10.98
2018-12-13T19:51:12.665Z,11.20
2018-12-13T19:53:47.760Z,9.80
2018-12-13T19:56:23.542Z,10.70
2018-12-13T19:58:57.504Z,10.57
2018-12-13T20:01:31.758Z,11.17
2018-12-13T20:04:06.391Z,11.43
2018-12-13T20:06:40.976Z,10.23
2018-12-13T20:09:15.139Z,10.17
2018-12-13T20:11:50.616Z,11.20
2018-12-13T20:14:24.415Z,10.43
2018-12-13T20:16:58.894Z,10.37
2018-12-13T20:19:34.676Z,11.10
2018-12-13T20:22:09.033Z,10.80
2018-12-13T20:24:43.477Z,10.53
2018-12-13T20:27:18.100Z,11.93
2018-12-13T20:29:53.094Z,10.40
2018-12-13T20:32:28.377Z,10.00
2018-12-13T20:35:02.373Z,9.87
2018-12-13T20:37:36.667Z,9.43
2018-12-13T20:40:11.626Z,8.17
2018-12-13T20:42:45.948Z,8.20
2018-12-13T20:45:20.109Z,8.63
2018-12-13T20:47:54.378Z,7.67
2018-12-13T20:50:31.889Z,7.73
2018-12-13T20:53:06.881Z,8.17
2018-12-13T20:55:43.034Z,9.67
2018-12-13T20:58:18.044Z,8.63
2018-12-13T21:00:52.054Z,8.63
2018-12-13T21:03:26.173Z,8.67
2018-12-13T21:06:01.369Z,7.83
2018-12-13T21:08:36.942Z,7.73
2018-12-13T21:11:11.527Z,7.95
2018-12-13T21:13:46.261Z,8.07
2018-12-13T21:16:20.764Z,9.80
2018-12-13T21:18:55.424Z,8.77
2018-12-13T21:21:30.374Z,8.17
2018-12-13T21:24:05.447Z,11.70
2018-12-13T21:26:39.738Z,15.23
2018-12-13T21:29:14.247Z,10.17
2018-12-13T21:31:48.612Z,12.43
2018-12-13T21:34:23.367Z,13.47
2018-12-13T21:36:58.307Z,10.83
2018-12-13T21:39:33.078Z,10.40
2018-12-13T21:42:07.339Z,10.00
2018-12-13T21:44:42.149Z,9.10
2018-12-13T21:47:16.670Z,7.43
2018-12-13T21:49:51.740Z,9.47
2018-12-13T21:52:26.754Z,9.90
2018-12-13T21:55:02.309Z,7.73
2018-12-13T21:57:36.303Z,8.47
2018-12-13T22:00:13.195Z,7.92
2018-12-13T22:02:47.230Z,7.15
2018-12-13T22:05:21.854Z,8.30
2018-12-13T22:07:59.635Z,8.33
2018-12-13T22:10:34.138Z,7.53
2018-12-13T22:13:08.782Z,7.40
2018-12-13T22:15:42.717Z,7.33
2018-12-13T22:18:17.144Z,7.40
2018-12-13T22:20:51.522Z,8.00
2018-12-13T22:23:27.159Z,8.23
2018-12-13T22:26:02.464Z,6.57
2018-12-13T22:28:37.803Z,6.40
2018-12-13T22:31:12.154Z,6.13
2018-12-13T22:33:46.758Z,6.87
2018-12-13T22:36:23.845Z,6.80
2018-12-13T22:38:58.494Z,8.57
2018-12-13T22:41:39.569Z,8.43
2018-12-13T22:44:16.123Z,7.27
2018-12-13T22:46:50.662Z,7.77
2018-12-13T22:49:24.834Z,6.87
2018-12-13T22:51:59.315Z,7.37
2018-12-13T22:54:34.125Z,7.40
2018-12-13T22:57:09.085Z,6.77
2018-12-13T22:59:44.221Z,7.47
2018-12-13T23:02:18.888Z,8.77
2018-12-13T23:04:53.824Z,8.10
2018-12-13T23:07:29.016Z,7.67
2018-12-13T23:10:02.951Z,7.97
2018-12-13T23:12:38.170Z,8.00
2018-12-13T23:15:14.462Z,7.80
2018-12-13T23:17:49.807Z,7.73
2018-12-13T23:20:25.250Z,7.00
2018-12-13T23:22:59.048Z,7.97
2018-12-13T23:25:35.455Z,8.50
2018-12-13T23:28:09.577Z,8.73
2018-12-13T23:30:44.046Z,8.60
2018-12-13T23:33:18.122Z,8.23
2018-12-13T23:35:52.290Z,7.70
2018-12-13T23:38:26.729Z,8.53
2018-12-13T23:41:00.771Z,8.93
2018-12-13T23:43:35.000Z,9.03
2018-12-13T23:46:10.330Z,8.67
2018-12-13T23:48:46.691Z,9.87
2018-12-13T23:51:22.600Z,8.63
2018-12-13T23:53:57.218Z,8.93
2018-12-13T23:56:31.975Z,9.37
2018-12-13T23:59:06.626Z,8.70
